sensor_id;sensor_type;location;lat;lon;timestamp;P1;durP1;ratioP1;P2;durP2;ratioP2
65459;SDS011;52058;49.822;6.754;2022-07-29T00:00:57;4.80;;;1.77;;
65459;SDS011;52058;49.822;6.754;2022-07-29T00:03:22;2.00;;;1.77;;
65459;SDS011;52058;49.822;6.754;2022-07-29T00:05:48;3.53;;;1.45;;
65459;SDS011;52058;49.822;6.754;2022-07-29T00:08:13;4.25;;;2.13;;
65459;SDS011;52058;49.822;6.754;2022-07-29T00:10:40;1.70;;;1.52;;
65459;SDS011;52058;49.822;6.754;2022-07-29T00:13:06;3.78;;;1.90;;
65459;SDS011;52058;49.822;6.754;2022-07-29T00:15:31;2.75;;;1.67;;
65459;SDS011;52058;49.822;6.754;2022-07-29T00:17:56;3.85;;;2.00;;
65459;SDS011;52058;49.822;6.754;2022-07-29T00:20:21;2.83;;;1.80;;
65459;SDS011;52058;49.822;6.754;2022-07-29T00:22:47;2.65;;;1.55;;
65459;SDS011;52058;49.822;6.754;2022-07-29T00:25:12;4.65;;;1.90;;
65459;SDS011;52058;49.822;6.754;2022-07-29T00:27:38;3.10;;;1.77;;
65459;SDS011;52058;49.822;6.754;2022-07-29T00:30:03;3.28;;;1.75;;
65459;SDS011;52058;49.822;6.754;2022-07-29T00:32:29;4.50;;;1.83;;
65459;SDS011;52058;49.822;6.754;2022-07-29T00:34:55;3.05;;;1.70;;
65459;SDS011;52058;49.822;6.754;2022-07-29T00:37:39;3.20;;;1.80;;
65459;SDS011;52058;49.822;6.754;2022-07-29T00:40:04;1.77;;;1.67;;
65459;SDS011;52058;49.822;6.754;2022-07-29T00:42:30;2.03;;;1.65;;
65459;SDS011;52058;49.822;6.754;2022-07-29T00:44:55;4.47;;;1.67;;
65459;SDS011;52058;49.822;6.754;2022-07-29T00:47:21;4.32;;;1.70;;
65459;SDS011;52058;49.822;6.754;2022-07-29T00:49:46;2.80;;;1.65;;
65459;SDS011;52058;49.822;6.754;2022-07-29T00:52:11;4.53;;;1.80;;
65459;SDS011;52058;49.822;6.754;2022-07-29T00:54:38;4.78;;;1.70;;
65459;SDS011;52058;49.822;6.754;2022-07-29T00:57:04;2.88;;;1.67;;
65459;SDS011;52058;49.822;6.754;2022-07-29T00:59:32;5.43;;;1.80;;
65459;SDS011;52058;49.822;6.754;2022-07-29T01:01:58;3.95;;;1.65;;
65459;SDS011;52058;49.822;6.754;2022-07-29T01:04:23;4.20;;;1.58;;
65459;SDS011;52058;49.822;6.754;2022-07-29T01:06:49;3.15;;;1.45;;
65459;SDS011;52058;49.822;6.754;2022-07-29T01:09:15;4.35;;;1.50;;
65459;SDS011;52058;49.822;6.754;2022-07-29T01:11:43;3.30;;;1.73;;
65459;SDS011;52058;49.822;6.754;2022-07-29T01:14:09;3.08;;;1.63;;
65459;SDS011;52058;49.822;6.754;2022-07-29T01:16:38;4.05;;;1.60;;
65459;SDS011;52058;49.822;6.754;2022-07-29T01:19:23;3.88;;;2.25;;
65459;SDS011;52058;49.822;6.754;2022-07-29T01:22:25;3.90;;;1.60;;
65459;SDS011;52058;49.822;6.754;2022-07-29T01:25:12;4.22;;;1.65;;
65459;SDS011;52058;49.822;6.754;2022-07-29T01:30:25;4.07;;;1.83;;
65459;SDS011;52058;49.822;6.754;2022-07-29T01:32:56;2.33;;;1.40;;
65459;SDS011;52058;49.822;6.754;2022-07-29T01:35:26;4.75;;;1.90;;
65459;SDS011;52058;49.822;6.754;2022-07-29T01:37:57;6.65;;;1.85;;
65459;SDS011;52058;49.822;6.754;2022-07-29T01:40:29;2.78;;;1.85;;
65459;SDS011;52058;49.822;6.754;2022-07-29T01:43:00;4.20;;;1.77;;
65459;SDS011;52058;49.822;6.754;2022-07-29T01:45:41;2.85;;;1.58;;
65459;SDS011;52058;49.822;6.754;2022-07-29T01:50:40;2.83;;;1.60;;
65459;SDS011;52058;49.822;6.754;2022-07-29T01:53:12;2.17;;;1.75;;
65459;SDS011;52058;49.822;6.754;2022-07-29T01:55:40;3.10;;;1.58;;
65459;SDS011;52058;49.822;6.754;2022-07-29T01:58:09;4.65;;;2.17;;
65459;SDS011;52058;49.822;6.754;2022-07-29T02:00:37;4.50;;;1.70;;
65459;SDS011;52058;49.822;6.754;2022-07-29T02:03:05;3.22;;;1.60;;
65459;SDS011;52058;49.822;6.754;2022-07-29T02:05:35;5.65;;;1.73;;
65459;SDS011;52058;49.822;6.754;2022-07-29T02:08:02;2.92;;;1.83;;
65459;SDS011;52058;49.822;6.754;2022-07-29T02:10:30;2.67;;;1.83;;
65459;SDS011;52058;49.822;6.754;2022-07-29T02:12:58;3.78;;;2.10;;
65459;SDS011;52058;49.822;6.754;2022-07-29T02:15:25;3.97;;;2.10;;
65459;SDS011;52058;49.822;6.754;2022-07-29T02:20:52;4.00;;;1.67;;
65459;SDS011;52058;49.822;6.754;2022-07-29T02:23:21;4.72;;;1.80;;
65459;SDS011;52058;49.822;6.754;2022-07-29T02:25:48;2.85;;;1.77;;
65459;SDS011;52058;49.822;6.754;2022-07-29T02:28:18;4.18;;;1.85;;
65459;SDS011;52058;49.822;6.754;2022-07-29T02:30:44;2.35;;;1.70;;
65459;SDS011;52058;49.822;6.754;2022-07-29T02:33:12;3.78;;;2.20;;
65459;SDS011;52058;49.822;6.754;2022-07-29T02:35:39;3.70;;;2.80;;
65459;SDS011;52058;49.822;6.754;2022-07-29T02:38:05;2.65;;;2.22;;
65459;SDS011;52058;49.822;6.754;2022-07-29T02:40:51;2.25;;;1.80;;
65459;SDS011;52058;49.822;6.754;2022-07-29T02:43:19;5.47;;;2.70;;
65459;SDS011;52058;49.822;6.754;2022-07-29T02:45:46;3.67;;;2.05;;
65459;SDS011;52058;49.822;6.754;2022-07-29T02:48:14;4.35;;;2.13;;
65459;SDS011;52058;49.822;6.754;2022-07-29T02:50:44;2.60;;;2.10;;
65459;SDS011;52058;49.822;6.754;2022-07-29T02:53:20;3.35;;;2.00;;
65459;SDS011;52058;49.822;6.754;2022-07-29T02:55:51;4.47;;;2.20;;
65459;SDS011;52058;49.822;6.754;2022-07-29T02:58:24;2.38;;;2.17;;
65459;SDS011;52058;49.822;6.754;2022-07-29T03:00:55;6.27;;;1.80;;
65459;SDS011;52058;49.822;6.754;2022-07-29T03:03:23;2.83;;;2.13;;
65459;SDS011;52058;49.822;6.754;2022-07-29T03:05:53;3.00;;;2.08;;
65459;SDS011;52058;49.822;6.754;2022-07-29T03:08:21;2.15;;;1.90;;
65459;SDS011;52058;49.822;6.754;2022-07-29T03:10:47;4.30;;;1.90;;
65459;SDS011;52058;49.822;6.754;2022-07-29T03:13:13;3.25;;;1.95;;
65459;SDS011;52058;49.822;6.754;2022-07-29T03:15:39;3.17;;;1.95;;
65459;SDS011;52058;49.822;6.754;2022-07-29T03:18:08;2.70;;;2.03;;
65459;SDS011;52058;49.822;6.754;2022-07-29T03:20:34;5.47;;;2.10;;
65459;SDS011;52058;49.822;6.754;2022-07-29T03:23:00;3.85;;;2.08;;
65459;SDS011;52058;49.822;6.754;2022-07-29T03:25:25;4.18;;;2.28;;
65459;SDS011;52058;49.822;6.754;2022-07-29T03:27:52;1.85;;;1.73;;
65459;SDS011;52058;49.822;6.754;2022-07-29T03:30:17;3.20;;;1.95;;
65459;SDS011;52058;49.822;6.754;2022-07-29T03:32:42;2.92;;;2.15;;
65459;SDS011;52058;49.822;6.754;2022-07-29T03:35:08;2.67;;;1.95;;
65459;SDS011;52058;49.822;6.754;2022-07-29T03:37:33;6.20;;;2.30;;
65459;SDS011;52058;49.822;6.754;2022-07-29T03:40:01;4.15;;;2.20;;
65459;SDS011;52058;49.822;6.754;2022-07-29T03:42:32;3.97;;;2.00;;
65459;SDS011;52058;49.822;6.754;2022-07-29T03:45:01;2.58;;;2.00;;
65459;SDS011;52058;49.822;6.754;2022-07-29T03:47:30;3.45;;;2.30;;
65459;SDS011;52058;49.822;6.754;2022-07-29T03:50:00;3.60;;;2.25;;
65459;SDS011;52058;49.822;6.754;2022-07-29T03:52:30;4.43;;;2.40;;
65459;SDS011;52058;49.822;6.754;2022-07-29T03:54:56;2.50;;;2.22;;
65459;SDS011;52058;49.822;6.754;2022-07-29T03:57:23;6.07;;;2.30;;
65459;SDS011;52058;49.822;6.754;2022-07-29T03:59:50;2.20;;;2.00;;
65459;SDS011;52058;49.822;6.754;2022-07-29T04:02:17;2.95;;;2.25;;
65459;SDS011;52058;49.822;6.754;2022-07-29T04:04:42;3.83;;;2.30;;
65459;SDS011;52058;49.822;6.754;2022-07-29T04:07:10;5.32;;;2.25;;
65459;SDS011;52058;49.822;6.754;2022-07-29T04:09:36;4.38;;;2.35;;
65459;SDS011;52058;49.822;6.754;2022-07-29T04:12:02;3.97;;;2.05;;
65459;SDS011;52058;49.822;6.754;2022-07-29T04:14:27;6.80;;;2.35;;
65459;SDS011;52058;49.822;6.754;2022-07-29T04:16:53;3.45;;;2.30;;
65459;SDS011;52058;49.822;6.754;2022-07-29T04:19:18;4.15;;;2.40;;
65459;SDS011;52058;49.822;6.754;2022-07-29T04:21:43;5.15;;;2.00;;
65459;SDS011;52058;49.822;6.754;2022-07-29T04:24:10;4.35;;;2.20;;
65459;SDS011;52058;49.822;6.754;2022-07-29T04:26:35;4.70;;;2.35;;
65459;SDS011;52058;49.822;6.754;2022-07-29T04:29:00;3.85;;;2.00;;
65459;SDS011;52058;49.822;6.754;2022-07-29T04:31:26;4.85;;;2.15;;
65459;SDS011;52058;49.822;6.754;2022-07-29T04:33:51;4.47;;;2.25;;
65459;SDS011;52058;49.822;6.754;2022-07-29T04:36:17;5.45;;;2.30;;
65459;SDS011;52058;49.822;6.754;2022-07-29T04:38:42;3.33;;;2.30;;
65459;SDS011;52058;49.822;6.754;2022-07-29T04:41:07;3.30;;;2.13;;
65459;SDS011;52058;49.822;6.754;2022-07-29T04:43:34;4.28;;;1.98;;
65459;SDS011;52058;49.822;6.754;2022-07-29T04:46:00;3.28;;;2.50;;
65459;SDS011;52058;49.822;6.754;2022-07-29T04:48:25;8.85;;;2.60;;
65459;SDS011;52058;49.822;6.754;2022-07-29T04:50:51;6.60;;;2.45;;
65459;SDS011;52058;49.822;6.754;2022-07-29T04:53:17;6.50;;;3.00;;
65459;SDS011;52058;49.822;6.754;2022-07-29T04:55:42;5.80;;;2.60;;
65459;SDS011;52058;49.822;6.754;2022-07-29T04:58:07;5.85;;;2.60;;
65459;SDS011;52058;49.822;6.754;2022-07-29T05:00:33;6.57;;;2.33;;
65459;SDS011;52058;49.822;6.754;2022-07-29T05:02:58;3.83;;;2.53;;
65459;SDS011;52058;49.822;6.754;2022-07-29T05:05:23;4.30;;;2.70;;
65459;SDS011;52058;49.822;6.754;2022-07-29T05:07:49;8.07;;;2.30;;
65459;SDS011;52058;49.822;6.754;2022-07-29T05:10:14;10.68;;;2.55;;
65459;SDS011;52058;49.822;6.754;2022-07-29T05:12:39;5.95;;;2.70;;
65459;SDS011;52058;49.822;6.754;2022-07-29T05:15:05;6.45;;;2.53;;
65459;SDS011;52058;49.822;6.754;2022-07-29T05:17:30;5.70;;;3.08;;
65459;SDS011;52058;49.822;6.754;2022-07-29T05:19:56;6.05;;;3.13;;
65459;SDS011;52058;49.822;6.754;2022-07-29T05:22:21;7.03;;;2.85;;
65459;SDS011;52058;49.822;6.754;2022-07-29T05:24:46;4.90;;;3.05;;
65459;SDS011;52058;49.822;6.754;2022-07-29T05:27:12;4.95;;;2.80;;
65459;SDS011;52058;49.822;6.754;2022-07-29T05:29:37;6.35;;;4.28;;
65459;SDS011;52058;49.822;6.754;2022-07-29T05:32:03;9.32;;;4.07;;
65459;SDS011;52058;49.822;6.754;2022-07-29T05:34:29;7.70;;;3.30;;
65459;SDS011;52058;49.822;6.754;2022-07-29T05:36:54;3.13;;;2.45;;
65459;SDS011;52058;49.822;6.754;2022-07-29T05:39:19;4.07;;;2.65;;
65459;SDS011;52058;49.822;6.754;2022-07-29T05:41:45;3.97;;;2.55;;
65459;SDS011;52058;49.822;6.754;2022-07-29T05:44:10;3.97;;;2.78;;
65459;SDS011;52058;49.822;6.754;2022-07-29T05:46:36;4.68;;;2.58;;
65459;SDS011;52058;49.822;6.754;2022-07-29T05:49:01;7.30;;;2.33;;
65459;SDS011;52058;49.822;6.754;2022-07-29T05:51:27;5.05;;;2.72;;
65459;SDS011;52058;49.822;6.754;2022-07-29T05:53:53;6.80;;;2.45;;
65459;SDS011;52058;49.822;6.754;2022-07-29T05:56:18;5.15;;;2.65;;
65459;SDS011;52058;49.822;6.754;2022-07-29T05:58:43;5.15;;;2.40;;
65459;SDS011;52058;49.822;6.754;2022-07-29T06:01:09;4.18;;;2.15;;
65459;SDS011;52058;49.822;6.754;2022-07-29T06:03:34;5.35;;;2.40;;
65459;SDS011;52058;49.822;6.754;2022-07-29T06:05:59;6.75;;;2.90;;
65459;SDS011;52058;49.822;6.754;2022-07-29T06:08:25;3.13;;;2.60;;
65459;SDS011;52058;49.822;6.754;2022-07-29T06:10:50;4.32;;;2.22;;
65459;SDS011;52058;49.822;6.754;2022-07-29T06:13:15;3.15;;;2.60;;
65459;SDS011;52058;49.822;6.754;2022-07-29T06:15:41;5.57;;;2.67;;
65459;SDS011;52058;49.822;6.754;2022-07-29T06:18:07;3.63;;;2.70;;
65459;SDS011;52058;49.822;6.754;2022-07-29T06:20:34;6.13;;;2.50;;
65459;SDS011;52058;49.822;6.754;2022-07-29T06:22:59;5.28;;;2.58;;
65459;SDS011;52058;49.822;6.754;2022-07-29T06:25:26;5.22;;;2.47;;
65459;SDS011;52058;49.822;6.754;2022-07-29T06:27:54;4.05;;;2.10;;
65459;SDS011;52058;49.822;6.754;2022-07-29T06:30:19;3.55;;;1.80;;
65459;SDS011;52058;49.822;6.754;2022-07-29T06:32:44;3.50;;;2.42;;
65459;SDS011;52058;49.822;6.754;2022-07-29T06:35:09;5.90;;;2.10;;
65459;SDS011;52058;49.822;6.754;2022-07-29T06:37:35;5.10;;;2.58;;
65459;SDS011;52058;49.822;6.754;2022-07-29T06:40:00;3.97;;;2.00;;
65459;SDS011;52058;49.822;6.754;2022-07-29T06:42:44;6.03;;;1.90;;
65459;SDS011;52058;49.822;6.754;2022-07-29T06:45:10;5.07;;;2.33;;
65459;SDS011;52058;49.822;6.754;2022-07-29T06:47:36;5.93;;;2.10;;
65459;SDS011;52058;49.822;6.754;2022-07-29T06:50:02;6.30;;;2.28;;
65459;SDS011;52058;49.822;6.754;2022-07-29T06:52:27;4.65;;;2.20;;
65459;SDS011;52058;49.822;6.754;2022-07-29T06:54:53;5.28;;;2.10;;
65459;SDS011;52058;49.822;6.754;2022-07-29T06:57:19;5.40;;;2.42;;
65459;SDS011;52058;49.822;6.754;2022-07-29T06:59:45;9.40;;;2.75;;
65459;SDS011;52058;49.822;6.754;2022-07-29T07:02:10;6.47;;;2.22;;
65459;SDS011;52058;49.822;6.754;2022-07-29T07:04:36;7.80;;;2.47;;
65459;SDS011;52058;49.822;6.754;2022-07-29T07:07:01;6.72;;;2.10;;
65459;SDS011;52058;49.822;6.754;2022-07-29T07:09:26;10.23;;;2.23;;
65459;SDS011;52058;49.822;6.754;2022-07-29T07:11:51;5.70;;;1.90;;
65459;SDS011;52058;49.822;6.754;2022-07-29T07:14:17;7.33;;;1.97;;
65459;SDS011;52058;49.822;6.754;2022-07-29T07:16:42;8.07;;;2.35;;
65459;SDS011;52058;49.822;6.754;2022-07-29T07:19:07;9.20;;;2.05;;
65459;SDS011;52058;49.822;6.754;2022-07-29T07:21:33;10.52;;;1.80;;
65459;SDS011;52058;49.822;6.754;2022-07-29T07:23:59;8.55;;;2.22;;
65459;SDS011;52058;49.822;6.754;2022-07-29T07:26:24;7.43;;;1.73;;
65459;SDS011;52058;49.822;6.754;2022-07-29T07:28:50;20.73;;;2.40;;
65459;SDS011;52058;49.822;6.754;2022-07-29T07:31:15;20.27;;;2.70;;
65459;SDS011;52058;49.822;6.754;2022-07-29T07:33:40;7.03;;;2.05;;
65459;SDS011;52058;49.822;6.754;2022-07-29T07:36:06;6.63;;;1.70;;
65459;SDS011;52058;49.822;6.754;2022-07-29T07:38:31;7.13;;;2.00;;
65459;SDS011;52058;49.822;6.754;2022-07-29T07:40:56;3.72;;;1.80;;
65459;SDS011;52058;49.822;6.754;2022-07-29T07:43:22;5.28;;;1.85;;
65459;SDS011;52058;49.822;6.754;2022-07-29T07:45:47;9.57;;;1.95;;
65459;SDS011;52058;49.822;6.754;2022-07-29T07:48:12;5.43;;;2.00;;
65459;SDS011;52058;49.822;6.754;2022-07-29T07:50:38;6.10;;;2.33;;
65459;SDS011;52058;49.822;6.754;2022-07-29T07:53:03;4.67;;;1.90;;
65459;SDS011;52058;49.822;6.754;2022-07-29T07:55:28;4.55;;;1.45;;
65459;SDS011;52058;49.822;6.754;2022-07-29T07:57:54;2.77;;;1.73;;
65459;SDS011;52058;49.822;6.754;2022-07-29T08:00:19;7.60;;;1.60;;
65459;SDS011;52058;49.822;6.754;2022-07-29T08:02:46;13.02;;;2.33;;
65459;SDS011;52058;49.822;6.754;2022-07-29T08:05:11;4.80;;;1.95;;
65459;SDS011;52058;49.822;6.754;2022-07-29T08:07:40;2.28;;;1.50;;
65459;SDS011;52058;49.822;6.754;2022-07-29T08:10:06;4.27;;;1.67;;
65459;SDS011;52058;49.822;6.754;2022-07-29T08:12:31;3.78;;;1.60;;
65459;SDS011;52058;49.822;6.754;2022-07-29T08:14:56;5.33;;;1.70;;
65459;SDS011;52058;49.822;6.754;2022-07-29T08:17:22;4.20;;;1.50;;
65459;SDS011;52058;49.822;6.754;2022-07-29T08:19:47;5.95;;;1.58;;
65459;SDS011;52058;49.822;6.754;2022-07-29T08:22:13;2.75;;;1.52;;
65459;SDS011;52058;49.822;6.754;2022-07-29T08:24:39;2.53;;;1.60;;
65459;SDS011;52058;49.822;6.754;2022-07-29T08:27:20;3.10;;;1.60;;
65459;SDS011;52058;49.822;6.754;2022-07-29T08:29:46;2.85;;;1.40;;
65459;SDS011;52058;49.822;6.754;2022-07-29T08:32:12;3.35;;;1.88;;
65459;SDS011;52058;49.822;6.754;2022-07-29T08:34:37;3.57;;;1.50;;
65459;SDS011;52058;49.822;6.754;2022-07-29T08:37:03;5.53;;;1.42;;
65459;SDS011;52058;49.822;6.754;2022-07-29T08:39:28;3.33;;;1.40;;
65459;SDS011;52058;49.822;6.754;2022-07-29T08:41:53;5.17;;;1.50;;
65459;SDS011;52058;49.822;6.754;2022-07-29T08:44:20;3.55;;;1.67;;
65459;SDS011;52058;49.822;6.754;2022-07-29T08:46:46;2.60;;;1.50;;
65459;SDS011;52058;49.822;6.754;2022-07-29T08:49:12;3.55;;;1.73;;
65459;SDS011;52058;49.822;6.754;2022-07-29T08:51:39;3.22;;;1.60;;
65459;SDS011;52058;49.822;6.754;2022-07-29T08:54:05;6.75;;;1.80;;
65459;SDS011;52058;49.822;6.754;2022-07-29T08:56:30;4.47;;;1.60;;
65459;SDS011;52058;49.822;6.754;2022-07-29T08:58:57;5.05;;;1.70;;
65459;SDS011;52058;49.822;6.754;2022-07-29T09:01:24;4.15;;;1.65;;
65459;SDS011;52058;49.822;6.754;2022-07-29T09:03:54;2.95;;;1.70;;
65459;SDS011;52058;49.822;6.754;2022-07-29T09:06:20;3.67;;;1.75;;
65459;SDS011;52058;49.822;6.754;2022-07-29T09:08:46;3.38;;;1.60;;
65459;SDS011;52058;49.822;6.754;2022-07-29T09:11:12;3.92;;;1.70;;
65459;SDS011;52058;49.822;6.754;2022-07-29T09:13:38;3.58;;;1.60;;
65459;SDS011;52058;49.822;6.754;2022-07-29T09:16:04;4.43;;;1.80;;
65459;SDS011;52058;49.822;6.754;2022-07-29T09:21:06;2.35;;;1.50;;
65459;SDS011;52058;49.822;6.754;2022-07-29T09:24:07;2.28;;;1.63;;
65459;SDS011;52058;49.822;6.754;2022-07-29T09:26:36;6.88;;;1.80;;
65459;SDS011;52058;49.822;6.754;2022-07-29T09:29:16;5.47;;;1.80;;
65459;SDS011;52058;49.822;6.754;2022-07-29T09:31:44;3.50;;;1.77;;
65459;SDS011;52058;49.822;6.754;2022-07-29T09:34:11;2.45;;;1.85;;
65459;SDS011;52058;49.822;6.754;2022-07-29T09:36:39;6.80;;;1.75;;
65459;SDS011;52058;49.822;6.754;2022-07-29T09:39:05;3.08;;;1.60;;
65459;SDS011;52058;49.822;6.754;2022-07-29T09:41:43;5.00;;;1.90;;
65459;SDS011;52058;49.822;6.754;2022-07-29T09:44:13;5.07;;;1.80;;
65459;SDS011;52058;49.822;6.754;2022-07-29T09:46:39;3.25;;;1.73;;
65459;SDS011;52058;49.822;6.754;2022-07-29T09:49:07;2.42;;;1.40;;
65459;SDS011;52058;49.822;6.754;2022-07-29T09:51:37;3.92;;;1.60;;
65459;SDS011;52058;49.822;6.754;2022-07-29T09:56:51;2.72;;;1.80;;
65459;SDS011;52058;49.822;6.754;2022-07-29T09:59:18;1.45;;;1.30;;
65459;SDS011;52058;49.822;6.754;2022-07-29T10:01:45;4.65;;;1.70;;
65459;SDS011;52058;49.822;6.754;2022-07-29T10:04:10;5.07;;;1.90;;
65459;SDS011;52058;49.822;6.754;2022-07-29T10:06:40;2.53;;;1.50;;
65459;SDS011;52058;49.822;6.754;2022-07-29T10:09:21;5.05;;;1.63;;
65459;SDS011;52058;49.822;6.754;2022-07-29T10:12:01;4.37;;;1.70;;
65459;SDS011;52058;49.822;6.754;2022-07-29T10:14:28;5.60;;;1.73;;
65459;SDS011;52058;49.822;6.754;2022-07-29T10:16:55;5.70;;;1.50;;
65459;SDS011;52058;49.822;6.754;2022-07-29T10:19:21;5.97;;;1.48;;
65459;SDS011;52058;49.822;6.754;2022-07-29T10:21:47;2.75;;;1.58;;
65459;SDS011;52058;49.822;6.754;2022-07-29T10:24:12;2.20;;;1.48;;
65459;SDS011;52058;49.822;6.754;2022-07-29T10:26:38;3.47;;;1.50;;
65459;SDS011;52058;49.822;6.754;2022-07-29T10:29:05;3.83;;;1.33;;
65459;SDS011;52058;49.822;6.754;2022-07-29T10:31:35;3.00;;;1.73;;
65459;SDS011;52058;49.822;6.754;2022-07-29T10:37:20;1.40;;;1.30;;
65459;SDS011;52058;49.822;6.754;2022-07-29T10:40:07;3.53;;;1.30;;
65459;SDS011;52058;49.822;6.754;2022-07-29T10:42:59;2.72;;;1.27;;
65459;SDS011;52058;49.822;6.754;2022-07-29T10:45:39;2.40;;;1.30;;
65459;SDS011;52058;49.822;6.754;2022-07-29T10:48:04;4.38;;;1.40;;
65459;SDS011;52058;49.822;6.754;2022-07-29T10:50:56;3.55;;;1.40;;
65459;SDS011;52058;49.822;6.754;2022-07-29T10:53:24;4.43;;;2.13;;
65459;SDS011;52058;49.822;6.754;2022-07-29T11:00:49;3.53;;;1.55;;
65459;SDS011;52058;49.822;6.754;2022-07-29T11:06:05;3.75;;;1.52;;
65459;SDS011;52058;49.822;6.754;2022-07-29T11:08:30;2.92;;;1.60;;
65459;SDS011;52058;49.822;6.754;2022-07-29T11:11:29;2.60;;;1.48;;
65459;SDS011;52058;49.822;6.754;2022-07-29T11:16:12;2.53;;;1.42;;
65459;SDS011;52058;49.822;6.754;2022-07-29T11:21:37;1.67;;;1.40;;
65459;SDS011;52058;49.822;6.754;2022-07-29T11:24:11;3.50;;;1.70;;
65459;SDS011;52058;49.822;6.754;2022-07-29T11:26:40;2.40;;;1.42;;
65459;SDS011;52058;49.822;6.754;2022-07-29T11:29:14;5.15;;;1.60;;
65459;SDS011;52058;49.822;6.754;2022-07-29T11:31:44;2.85;;;1.65;;
65459;SDS011;52058;49.822;6.754;2022-07-29T11:39:31;3.05;;;1.77;;
65459;SDS011;52058;49.822;6.754;2022-07-29T11:44:53;3.65;;;1.95;;
65459;SDS011;52058;49.822;6.754;2022-07-29T11:47:25;4.20;;;1.80;;
65459;SDS011;52058;49.822;6.754;2022-07-29T11:49:52;4.80;;;1.77;;
65459;SDS011;52058;49.822;6.754;2022-07-29T11:52:19;5.22;;;1.55;;
65459;SDS011;52058;49.822;6.754;2022-07-29T11:54:44;4.50;;;1.35;;
65459;SDS011;52058;49.822;6.754;2022-07-29T11:57:13;4.63;;;1.90;;
65459;SDS011;52058;49.822;6.754;2022-07-29T11:59:43;2.75;;;1.55;;
65459;SDS011;52058;49.822;6.754;2022-07-29T12:02:09;2.50;;;1.55;;
65459;SDS011;52058;49.822;6.754;2022-07-29T12:04:47;2.75;;;1.40;;
65459;SDS011;52058;49.822;6.754;2022-07-29T12:07:13;2.78;;;1.83;;
65459;SDS011;52058;49.822;6.754;2022-07-29T12:09:38;2.35;;;1.70;;
65459;SDS011;52058;49.822;6.754;2022-07-29T12:12:04;3.30;;;1.67;;
65459;SDS011;52058;49.822;6.754;2022-07-29T12:14:30;1.80;;;1.70;;
65459;SDS011;52058;49.822;6.754;2022-07-29T12:16:57;3.30;;;1.63;;
65459;SDS011;52058;49.822;6.754;2022-07-29T12:19:24;4.07;;;1.80;;
65459;SDS011;52058;49.822;6.754;2022-07-29T12:21:50;4.88;;;1.73;;
65459;SDS011;52058;49.822;6.754;2022-07-29T12:24:17;2.50;;;1.40;;
65459;SDS011;52058;49.822;6.754;2022-07-29T12:26:50;3.58;;;1.52;;
65459;SDS011;52058;49.822;6.754;2022-07-29T12:29:20;3.75;;;1.40;;
65459;SDS011;52058;49.822;6.754;2022-07-29T12:31:46;3.15;;;1.67;;
65459;SDS011;52058;49.822;6.754;2022-07-29T12:34:18;3.92;;;1.70;;
65459;SDS011;52058;49.822;6.754;2022-07-29T12:36:44;4.13;;;1.90;;
65459;SDS011;52058;49.822;6.754;2022-07-29T12:39:10;2.65;;;1.70;;
65459;SDS011;52058;49.822;6.754;2022-07-29T12:41:36;4.55;;;1.70;;
65459;SDS011;52058;49.822;6.754;2022-07-29T12:44:02;3.13;;;1.70;;
65459;SDS011;52058;49.822;6.754;2022-07-29T12:46:27;2.60;;;1.48;;
65459;SDS011;52058;49.822;6.754;2022-07-29T12:48:53;3.03;;;2.10;;
65459;SDS011;52058;49.822;6.754;2022-07-29T12:51:28;6.38;;;2.00;;
65459;SDS011;52058;49.822;6.754;2022-07-29T12:54:06;3.35;;;1.80;;
65459;SDS011;52058;49.822;6.754;2022-07-29T12:56:33;2.03;;;1.63;;
65459;SDS011;52058;49.822;6.754;2022-07-29T12:58:58;2.67;;;1.42;;
65459;SDS011;52058;49.822;6.754;2022-07-29T13:01:24;2.40;;;1.50;;
65459;SDS011;52058;49.822;6.754;2022-07-29T13:03:56;3.78;;;1.80;;
65459;SDS011;52058;49.822;6.754;2022-07-29T13:06:34;4.43;;;2.40;;
65459;SDS011;52058;49.822;6.754;2022-07-29T13:11:42;6.43;;;1.60;;
65459;SDS011;52058;49.822;6.754;2022-07-29T13:14:10;2.20;;;1.63;;
65459;SDS011;52058;49.822;6.754;2022-07-29T13:16:37;4.63;;;1.80;;
65459;SDS011;52058;49.822;6.754;2022-07-29T13:19:32;4.63;;;1.77;;
65459;SDS011;52058;49.822;6.754;2022-07-29T13:21:59;1.98;;;1.80;;
65459;SDS011;52058;49.822;6.754;2022-07-29T13:24:24;2.70;;;1.75;;
65459;SDS011;52058;49.822;6.754;2022-07-29T13:26:49;3.37;;;2.00;;
65459;SDS011;52058;49.822;6.754;2022-07-29T13:29:16;3.58;;;2.10;;
65459;SDS011;52058;49.822;6.754;2022-07-29T13:31:42;3.50;;;1.67;;
65459;SDS011;52058;49.822;6.754;2022-07-29T13:34:07;2.50;;;1.63;;
65459;SDS011;52058;49.822;6.754;2022-07-29T13:36:32;2.53;;;1.60;;
65459;SDS011;52058;49.822;6.754;2022-07-29T13:38:57;2.47;;;1.80;;
65459;SDS011;52058;49.822;6.754;2022-07-29T13:41:23;3.78;;;1.58;;
65459;SDS011;52058;49.822;6.754;2022-07-29T13:43:48;2.70;;;1.70;;
65459;SDS011;52058;49.822;6.754;2022-07-29T13:46:13;2.17;;;1.50;;
65459;SDS011;52058;49.822;6.754;2022-07-29T13:48:39;2.00;;;1.60;;
65459;SDS011;52058;49.822;6.754;2022-07-29T13:51:04;3.03;;;1.60;;
65459;SDS011;52058;49.822;6.754;2022-07-29T13:53:29;4.17;;;1.83;;
65459;SDS011;52058;49.822;6.754;2022-07-29T13:55:54;2.35;;;1.60;;
65459;SDS011;52058;49.822;6.754;2022-07-29T13:58:20;3.80;;;1.63;;
65459;SDS011;52058;49.822;6.754;2022-07-29T14:00:45;2.80;;;1.70;;
65459;SDS011;52058;49.822;6.754;2022-07-29T14:03:11;4.25;;;1.77;;
65459;SDS011;52058;49.822;6.754;2022-07-29T14:05:36;1.70;;;1.60;;
65459;SDS011;52058;49.822;6.754;2022-07-29T14:08:02;2.70;;;1.67;;
65459;SDS011;52058;49.822;6.754;2022-07-29T14:10:27;2.83;;;1.75;;
65459;SDS011;52058;49.822;6.754;2022-07-29T14:12:52;1.48;;;1.38;;
65459;SDS011;52058;49.822;6.754;2022-07-29T14:15:18;3.03;;;1.63;;
65459;SDS011;52058;49.822;6.754;2022-07-29T14:17:43;3.13;;;1.63;;
65459;SDS011;52058;49.822;6.754;2022-07-29T14:20:08;2.33;;;1.40;;
65459;SDS011;52058;49.822;6.754;2022-07-29T14:22:34;3.55;;;1.77;;
65459;SDS011;52058;49.822;6.754;2022-07-29T14:24:59;3.03;;;1.67;;
65459;SDS011;52058;49.822;6.754;2022-07-29T14:27:25;5.63;;;1.50;;
65459;SDS011;52058;49.822;6.754;2022-07-29T14:29:50;2.55;;;1.30;;
65459;SDS011;52058;49.822;6.754;2022-07-29T14:32:15;3.35;;;1.60;;
65459;SDS011;52058;49.822;6.754;2022-07-29T14:34:41;2.80;;;1.48;;
65459;SDS011;52058;49.822;6.754;2022-07-29T14:37:06;7.43;;;1.90;;
65459;SDS011;52058;49.822;6.754;2022-07-29T14:39:32;5.28;;;1.88;;
65459;SDS011;52058;49.822;6.754;2022-07-29T14:41:58;2.47;;;1.30;;
65459;SDS011;52058;49.822;6.754;2022-07-29T14:44:23;3.08;;;1.50;;
65459;SDS011;52058;49.822;6.754;2022-07-29T14:46:51;2.72;;;1.60;;
65459;SDS011;52058;49.822;6.754;2022-07-29T14:49:16;1.83;;;1.50;;
65459;SDS011;52058;49.822;6.754;2022-07-29T14:51:42;2.43;;;1.57;;
65459;SDS011;52058;49.822;6.754;2022-07-29T14:54:07;2.35;;;1.45;;
65459;SDS011;52058;49.822;6.754;2022-07-29T14:56:32;4.47;;;1.42;;
65459;SDS011;52058;49.822;6.754;2022-07-29T14:58:57;1.63;;;1.40;;
65459;SDS011;52058;49.822;6.754;2022-07-29T15:01:23;1.80;;;1.58;;
65459;SDS011;52058;49.822;6.754;2022-07-29T15:03:49;4.45;;;1.75;;
65459;SDS011;52058;49.822;6.754;2022-07-29T15:06:15;4.25;;;1.90;;
65459;SDS011;52058;49.822;6.754;2022-07-29T15:08:40;2.50;;;1.88;;
65459;SDS011;52058;49.822;6.754;2022-07-29T15:11:06;3.40;;;1.48;;
65459;SDS011;52058;49.822;6.754;2022-07-29T15:13:31;1.88;;;1.60;;
65459;SDS011;52058;49.822;6.754;2022-07-29T15:15:58;1.50;;;1.40;;
65459;SDS011;52058;49.822;6.754;2022-07-29T15:18:23;4.55;;;1.70;;
65459;SDS011;52058;49.822;6.754;2022-07-29T15:20:48;2.35;;;1.70;;
65459;SDS011;52058;49.822;6.754;2022-07-29T15:23:13;2.40;;;1.88;;
65459;SDS011;52058;49.822;6.754;2022-07-29T15:25:39;3.63;;;1.63;;
65459;SDS011;52058;49.822;6.754;2022-07-29T15:28:04;4.32;;;1.98;;
65459;SDS011;52058;49.822;6.754;2022-07-29T15:30:32;4.00;;;1.70;;